createdAt,value
2022-08-22T00:00:57.781Z,2.92
2022-08-22T00:02:54.722Z,3.30
2022-08-22T00:03:45.456Z,2.97
2022-08-22T00:06:25.920Z,2.83
2022-08-22T00:09:18.618Z,2.85
2022-08-22T00:11:57.432Z,3.28
2022-08-22T00:14:34.938Z,3.33
2022-08-22T00:17:20.756Z,3.10
2022-08-22T00:20:30.343Z,2.97
2022-08-22T00:23:02.479Z,3.58
2022-08-22T00:28:16.347Z,3.30
2022-08-22T00:30:54.827Z,4.05
2022-08-22T00:33:37.587Z,3.25
2022-08-22T00:36:25.466Z,4.07
2022-08-22T00:39:04.339Z,4.05
2022-08-22T00:42:09.981Z,3.97
2022-08-22T00:44:57.685Z,4.35
2022-08-22T00:47:39.048Z,4.30
2022-08-22T00:50:31.923Z,4.37
2022-08-22T00:53:38.154Z,4.10
2022-08-22T00:56:26.004Z,3.65
2022-08-22T00:58:55.367Z,3.58
2022-08-22T01:01:36.115Z,3.80
2022-08-22T01:04:43.981Z,3.85
2022-08-22T01:07:35.352Z,4.63
2022-08-22T01:10:23.854Z,3.90
2022-08-22T01:13:20.399Z,3.75
2022-08-22T01:15:50.068Z,3.92
2022-08-22T01:18:46.310Z,3.70
2022-08-22T01:21:52.512Z,3.58
2022-08-22T01:25:08.905Z,3.90
2022-08-22T01:27:53.822Z,3.70
2022-08-22T01:30:49.403Z,3.80
2022-08-22T01:33:34.556Z,3.83
2022-08-22T01:36:30.338Z,3.65
2022-08-22T01:39:35.608Z,4.10
2022-08-22T01:42:02.465Z,3.97
2022-08-22T01:44:44.206Z,3.42
2022-08-22T01:47:39.224Z,3.50
2022-08-22T01:50:35.869Z,3.05
2022-08-22T01:53:14.363Z,3.53
2022-08-22T01:55:59.822Z,3.22
2022-08-22T01:58:33.168Z,3.22
2022-08-22T02:01:11.553Z,3.30
2022-08-22T02:04:15.165Z,3.53
2022-08-22T02:06:52.407Z,3.03
2022-08-22T02:09:50.893Z,3.80
2022-08-22T02:12:30.104Z,3.70
2022-08-22T02:15:15.487Z,3.80
2022-08-22T02:18:06.323Z,4.10
2022-08-22T02:20:51.167Z,3.45
2022-08-22T02:23:43.612Z,3.70
2022-08-22T02:28:58.063Z,3.55
2022-08-22T02:31:41.317Z,3.38
2022-08-22T02:34:40.109Z,3.50
2022-08-22T02:37:16.730Z,3.40
2022-08-22T02:39:51.808Z,3.50
2022-08-22T02:42:34.296Z,3.28
2022-08-22T02:45:15.896Z,3.25
2022-08-22T02:48:09.264Z,3.60
2022-08-22T02:50:47.724Z,3.20
2022-08-22T02:53:38.826Z,3.85
2022-08-22T02:56:18.704Z,3.60
2022-08-22T02:59:13.718Z,3.28
2022-08-22T03:01:43.880Z,3.40
2022-08-22T03:04:45.478Z,3.33
2022-08-22T03:07:29.191Z,3.50
2022-08-22T03:10:18.087Z,3.53
2022-08-22T03:13:02.486Z,3.60
2022-08-22T03:15:49.255Z,3.90
2022-08-22T03:18:20.144Z,3.45
2022-08-22T03:20:59.043Z,3.58
2022-08-22T03:23:40.551Z,3.42
2022-08-22T03:26:22.495Z,3.50
2022-08-22T03:29:01.187Z,3.22
2022-08-22T03:31:30.472Z,3.40
2022-08-22T03:34:22.518Z,3.90
2022-08-22T03:37:15.229Z,3.30
2022-08-22T03:39:50.608Z,3.50
2022-08-22T03:42:35.814Z,3.60
2022-08-22T03:45:14.481Z,3.60
2022-08-22T03:48:05.056Z,3.33
2022-08-22T03:51:03.692Z,3.20
2022-08-22T03:53:42.336Z,3.47
2022-08-22T03:56:44.688Z,3.22
2022-08-22T03:59:36.547Z,3.65
2022-08-22T04:02:54.733Z,3.35
2022-08-22T04:05:58.141Z,3.47
2022-08-22T04:08:52.279Z,3.70
2022-08-22T04:11:42.866Z,3.83
2022-08-22T04:14:35.631Z,4.00
2022-08-22T04:17:27.307Z,3.78
2022-08-22T04:20:20.791Z,3.43
2022-08-22T04:23:02.673Z,3.80
2022-08-22T04:25:52.165Z,3.72
2022-08-22T04:28:39.660Z,3.80
2022-08-22T04:31:12.819Z,4.30
2022-08-22T04:34:01.129Z,3.92
2022-08-22T04:36:33.203Z,4.00
2022-08-22T04:42:31.622Z,3.80
2022-08-22T04:45:03.534Z,3.92
2022-08-22T04:48:08.978Z,3.95
2022-08-22T04:51:04.504Z,3.75
2022-08-22T04:54:00.394Z,3.90
2022-08-22T04:56:52.599Z,4.00
2022-08-22T04:59:19.585Z,3.40
2022-08-22T05:01:55.236Z,4.05
2022-08-22T05:04:29.343Z,3.80
2022-08-22T05:07:04.457Z,4.20
2022-08-22T05:09:34.216Z,4.32
2022-08-22T05:12:09.117Z,3.88
2022-08-22T05:14:49.084Z,4.10
2022-08-22T05:17:21.256Z,4.00
2022-08-22T05:22:23.982Z,4.20
2022-08-22T05:24:57.081Z,4.20
2022-08-22T05:27:28.548Z,4.18
2022-08-22T05:30:11.695Z,4.72
2022-08-22T05:33:03.832Z,4.32
2022-08-22T05:35:40.680Z,4.35
2022-08-22T05:38:12.374Z,4.57
2022-08-22T05:40:40.770Z,4.43
2022-08-22T05:43:11.357Z,4.18
2022-08-22T05:45:43.584Z,4.35
2022-08-22T05:48:24.926Z,4.22
2022-08-22T05:50:59.335Z,4.28
2022-08-22T05:53:35.806Z,4.25
2022-08-22T05:56:07.964Z,4.70
2022-08-22T06:01:38.173Z,4.47
2022-08-22T06:04:17.447Z,4.35
2022-08-22T06:07:13.596Z,4.70
2022-08-22T06:09:46.627Z,4.45
2022-08-22T06:12:22.298Z,4.75
2022-08-22T06:14:57.569Z,4.80
2022-08-22T06:17:35.986Z,4.95
2022-08-22T06:20:05.638Z,4.50
2022-08-22T06:22:43.572Z,5.10
2022-08-22T06:25:41.446Z,4.72
2022-08-22T06:28:11.409Z,5.07
2022-08-22T06:30:42.237Z,6.00
2022-08-22T06:33:15.919Z,5.53
2022-08-22T06:36:06.486Z,6.10
2022-08-22T06:38:52.837Z,5.80
2022-08-22T06:41:22.527Z,6.45
2022-08-22T06:43:52.667Z,6.57
2022-08-22T06:46:22.200Z,6.50
2022-08-22T06:48:49.218Z,6.65
2022-08-22T06:51:20.331Z,6.45
2022-08-22T06:53:54.724Z,6.88
2022-08-22T06:56:25.502Z,6.50
2022-08-22T06:59:00.809Z,6.22
2022-08-22T07:01:37.511Z,7.13
2022-08-22T07:04:14.257Z,7.00
2022-08-22T07:06:45.934Z,6.88
2022-08-22T07:09:31.169Z,7.07
2022-08-22T07:12:01.634Z,7.25
2022-08-22T07:14:39.171Z,6.85
2022-08-22T07:17:09.267Z,7.00
2022-08-22T07:19:46.201Z,6.72
2022-08-22T07:22:17.029Z,7.40
2022-08-22T07:24:48.255Z,8.43
2022-08-22T07:27:38.903Z,7.33
2022-08-22T07:30:17.878Z,6.95
2022-08-22T07:33:25.150Z,6.20
2022-08-22T07:36:05.876Z,7.07
2022-08-22T07:38:42.898Z,6.93
2022-08-22T07:41:20.633Z,7.38
2022-08-22T07:44:01.097Z,7.22
2022-08-22T07:46:41.178Z,7.18
2022-08-22T07:49:10.605Z,7.50
2022-08-22T07:51:46.496Z,7.90
2022-08-22T07:54:27.130Z,7.10
2022-08-22T07:56:59.995Z,6.80
2022-08-22T07:59:28.515Z,7.03
2022-08-22T08:01:59.821Z,6.60
2022-08-22T08:04:36.884Z,7.10
2022-08-22T08:07:08.495Z,7.00
2022-08-22T08:09:41.287Z,6.93
2022-08-22T08:12:12.260Z,7.15
2022-08-22T08:14:42.496Z,7.13
2022-08-22T08:17:34.294Z,6.35
2022-08-22T08:20:08.634Z,6.45
2022-08-22T08:22:38.387Z,7.60
2022-08-22T08:25:07.473Z,7.22
2022-08-22T08:27:56.725Z,7.55
2022-08-22T08:30:40.196Z,6.82
2022-08-22T08:33:24.250Z,7.00
2022-08-22T08:36:09.997Z,6.72
2022-08-22T08:38:47.810Z,6.50
2022-08-22T08:41:22.110Z,6.93
2022-08-22T08:44:04.347Z,7.43
2022-08-22T08:46:57.332Z,7.20
2022-08-22T08:49:42.113Z,7.65
2022-08-22T08:52:34.435Z,7.43
2022-08-22T08:58:11.093Z,7.35
2022-08-22T09:00:42.792Z,7.63
2022-08-22T09:03:56.158Z,7.80
2022-08-22T09:09:58.202Z,7.97
2022-08-22T09:12:56.272Z,7.82
2022-08-22T09:16:04.932Z,6.60
2022-08-22T09:18:53.226Z,7.72
2022-08-22T09:21:31.532Z,7.50
2022-08-22T09:24:30.720Z,6.97
2022-08-22T09:27:06.604Z,7.07
2022-08-22T09:30:11.558Z,6.72
2022-08-22T09:32:54.606Z,6.40
2022-08-22T09:35:34.389Z,6.78
2022-08-22T09:38:28.234Z,6.75
2022-08-22T09:41:13.214Z,7.05
2022-08-22T09:43:57.658Z,5.68
2022-08-22T09:46:37.687Z,6.60
2022-08-22T09:49:23.726Z,5.13
2022-08-22T09:52:33.119Z,5.50
2022-08-22T09:55:08.099Z,4.43
2022-08-22T09:57:54.026Z,5.18
2022-08-22T10:00:27.726Z,4.75
2022-08-22T10:03:19.536Z,4.82
2022-08-22T10:05:57.562Z,5.25
2022-08-22T10:08:49.462Z,3.95
2022-08-22T10:11:32.334Z,4.05
2022-08-22T10:14:22.996Z,4.22
2022-08-22T10:17:10.365Z,4.03
2022-08-22T10:19:52.839Z,4.20
2022-08-22T10:22:30.261Z,4.07
2022-08-22T10:25:22.729Z,4.10
2022-08-22T10:28:10.428Z,3.55
2022-08-22T10:31:10.969Z,3.92
2022-08-22T10:34:05.938Z,3.88
2022-08-22T10:37:14.511Z,3.50
2022-08-22T10:40:05.501Z,3.58
2022-08-22T10:42:46.714Z,3.90
2022-08-22T10:45:24.040Z,3.95
2022-08-22T10:48:08.793Z,3.50
2022-08-22T10:50:48.623Z,4.10
2022-08-22T10:53:58.885Z,3.80
2022-08-22T10:56:51.002Z,3.78
2022-08-22T10:59:51.008Z,3.47
2022-08-22T11:02:55.216Z,4.10
2022-08-22T11:05:44.878Z,4.10
2022-08-22T11:11:32.945Z,4.15
2022-08-22T11:14:18.844Z,3.75
2022-08-22T11:17:02.795Z,4.03
2022-08-22T11:20:19.473Z,3.92
2022-08-22T11:23:08.227Z,3.85
2022-08-22T11:26:04.866Z,3.70
2022-08-22T11:29:14.114Z,3.63
2022-08-22T11:31:55.232Z,3.42
2022-08-22T11:35:00.702Z,3.78
2022-08-22T11:37:45.638Z,3.78
2022-08-22T11:40:22.826Z,3.42
2022-08-22T11:43:41.427Z,3.58
2022-08-22T11:46:32.176Z,3.38
2022-08-22T11:49:16.967Z,3.45
2022-08-22T11:52:03.829Z,3.33
2022-08-22T11:54:42.264Z,3.30
2022-08-22T11:57:20.445Z,3.92
2022-08-22T12:00:06.402Z,3.55
2022-08-22T12:03:01.579Z,3.22
2022-08-22T12:05:45.586Z,3.58
2022-08-22T12:08:25.914Z,2.97
2022-08-22T12:11:09.852Z,3.50
2022-08-22T12:13:50.440Z,3.97
2022-08-22T12:16:29.625Z,3.70
2022-08-22T12:19:27.292Z,3.50
2022-08-22T12:22:34.673Z,3.90
2022-08-22T12:27:36.880Z,3.60
2022-08-22T12:30:24.536Z,3.47
2022-08-22T12:33:23.311Z,3.88
2022-08-22T12:36:00.149Z,3.72
2022-08-22T12:38:50.839Z,4.22
2022-08-22T12:41:35.165Z,3.45
2022-08-22T12:44:16.415Z,3.25
2022-08-22T12:47:05.318Z,3.33
2022-08-22T12:50:06.012Z,3.58
2022-08-22T12:52:38.464Z,3.80
2022-08-22T12:55:21.432Z,3.50
2022-08-22T12:58:18.323Z,3.50
2022-08-22T13:00:48.044Z,3.53
2022-08-22T13:03:44.218Z,3.50
2022-08-22T13:06:35.764Z,3.42
2022-08-22T13:12:02.422Z,3.78
2022-08-22T13:14:33.906Z,3.80
2022-08-22T13:17:15.191Z,3.30
2022-08-22T13:20:06.007Z,3.17
2022-08-22T13:22:38.888Z,3.30
2022-08-22T13:25:38.260Z,3.80
2022-08-22T13:28:11.901Z,3.17
2022-08-22T13:30:41.162Z,2.88
2022-08-22T13:33:21.792Z,3.08
2022-08-22T13:35:53.886Z,3.50
2022-08-22T13:38:39.925Z,3.30
2022-08-22T13:41:18.751Z,3.30
2022-08-22T13:44:06.624Z,3.22
2022-08-22T13:46:35.712Z,3.05
2022-08-22T13:49:07.164Z,3.13
2022-08-22T13:51:53.106Z,3.25
2022-08-22T13:54:46.526Z,3.03
2022-08-22T13:57:31.671Z,3.47
2022-08-22T14:00:28.618Z,3.08
2022-08-22T14:03:01.385Z,3.10
2022-08-22T14:05:33.936Z,3.33
2022-08-22T14:08:12.698Z,3.15
2022-08-22T14:10:55.085Z,3.17
2022-08-22T14:13:40.300Z,3.10
2022-08-22T14:16:13.357Z,3.47
2022-08-22T14:18:49.164Z,3.50
2022-08-22T14:21:25.011Z,3.20
2022-08-22T14:23:55.160Z,3.05
2022-08-22T14:26:47.363Z,3.10
2022-08-22T14:29:18.693Z,3.40
2022-08-22T14:34:23.154Z,3.22
2022-08-22T14:37:21.247Z,3.45
2022-08-22T14:39:56.018Z,3.40
2022-08-22T14:42:27.005Z,3.05
2022-08-22T14:45:13.239Z,3.40
2022-08-22T14:47:54.961Z,3.55
2022-08-22T14:51:03.864Z,3.20
2022-08-22T14:53:34.047Z,3.30
2022-08-22T14:56:07.721Z,3.37
2022-08-22T14:58:57.934Z,3.42
2022-08-22T15:01:29.817Z,3.92
2022-08-22T15:04:18.887Z,3.70
2022-08-22T15:06:58.558Z,3.03
2022-08-22T15:09:50.883Z,3.80
2022-08-22T15:12:31.384Z,3.10
2022-08-22T15:17:53.506Z,3.50
2022-08-22T15:20:36.290Z,3.50
2022-08-22T15:23:23.266Z,4.07
2022-08-22T15:26:01.231Z,3.60
2022-08-22T15:28:53.043Z,3.45
2022-08-22T15:31:20.524Z,3.30
2022-08-22T15:33:51.422Z,3.90
2022-08-22T15:36:25.597Z,3.03
2022-08-22T15:39:15.248Z,3.08
2022-08-22T15:41:48.398Z,3.45
2022-08-22T15:44:32.135Z,3.60
2022-08-22T15:47:09.053Z,3.47
2022-08-22T15:49:50.805Z,3.20
2022-08-22T15:53:06.825Z,3.80
2022-08-22T15:55:35.351Z,3.70
2022-08-22T15:58:22.499Z,3.47
2022-08-22T16:01:20.030Z,3.85
2022-08-22T16:04:04.826Z,3.50
2022-08-22T16:06:51.287Z,3.35
2022-08-22T16:09:39.015Z,3.70
2022-08-22T16:12:10.262Z,3.28
2022-08-22T16:14:36.868Z,4.00
2022-08-22T16:17:26.426Z,4.05
2022-08-22T16:20:09.899Z,3.72
2022-08-22T16:22:56.515Z,3.72
2022-08-22T16:25:44.706Z,3.65
2022-08-22T16:28:47.770Z,3.70
2022-08-22T16:31:29.689Z,4.07
2022-08-22T16:34:18.588Z,3.75
2022-08-22T16:37:03.365Z,3.55
2022-08-22T16:39:36.223Z,3.45
2022-08-22T16:42:22.377Z,4.15
2022-08-22T16:45:05.484Z,3.83
2022-08-22T16:47:56.413Z,3.42
2022-08-22T16:50:37.167Z,3.60
2022-08-22T16:53:11.500Z,4.10
2022-08-22T16:55:45.042Z,3.78
2022-08-22T16:58:57.910Z,4.20
2022-08-22T17:01:33.314Z,3.80
2022-08-22T17:04:14.523Z,3.97
2022-08-22T17:07:13.144Z,3.72
2022-08-22T17:10:12.341Z,3.53
2022-08-22T17:12:54.195Z,3.80
2022-08-22T17:15:23.588Z,3.70
2022-08-22T17:18:25.584Z,3.75
2022-08-22T17:21:15.530Z,3.85
2022-08-22T17:24:03.471Z,4.03
2022-08-22T17:26:41.913Z,3.75
2022-08-22T17:29:26.807Z,3.83
2022-08-22T17:31:55.113Z,3.85
2022-08-22T17:34:24.508Z,3.72
2022-08-22T17:37:06.454Z,3.50
2022-08-22T17:39:55.959Z,3.75
2022-08-22T17:42:46.375Z,3.78
2022-08-22T17:45:28.191Z,3.78
2022-08-22T17:48:06.703Z,3.50
2022-08-22T17:50:54.937Z,3.30
2022-08-22T17:53:45.960Z,3.70
2022-08-22T17:56:26.547Z,3.72
2022-08-22T17:59:12.647Z,3.77
2022-08-22T18:01:50.427Z,3.50
2022-08-22T18:04:29.171Z,3.55
2022-08-22T18:07:18.496Z,4.00
2022-08-22T18:09:55.234Z,4.15
2022-08-22T18:12:34.682Z,3.50
2022-08-22T18:15:29.772Z,3.97
2022-08-22T18:17:56.664Z,4.00
2022-08-22T18:20:37.612Z,3.88
2022-08-22T18:23:38.992Z,4.10
2022-08-22T18:26:14.628Z,4.45
2022-08-22T18:28:55.915Z,3.90
2022-08-22T18:31:39.202Z,3.80
2022-08-22T18:34:18.524Z,4.47
2022-08-22T18:36:58.422Z,3.83
2022-08-22T18:39:46.673Z,4.43
2022-08-22T18:42:54.592Z,4.18
2022-08-22T18:45:45.962Z,3.65
2022-08-22T18:48:31.775Z,3.75
2022-08-22T18:51:38.710Z,3.88
2022-08-22T18:54:05.530Z,4.05
2022-08-22T18:56:40.431Z,3.90
2022-08-22T18:59:18.799Z,4.45
2022-08-22T19:01:52.508Z,4.32
2022-08-22T19:04:42.864Z,4.43
2022-08-22T19:07:30.679Z,4.53
2022-08-22T19:10:35.900Z,4.45
2022-08-22T19:13:11.346Z,4.57
2022-08-22T19:16:11.187Z,4.38
2022-08-22T19:18:40.472Z,4.30
2022-08-22T19:21:53.067Z,4.05
2022-08-22T19:24:19.626Z,4.43
2022-08-22T19:27:18.282Z,4.53
2022-08-22T19:29:45.016Z,5.00
2022-08-22T19:32:46.687Z,4.50
2022-08-22T19:35:23.975Z,4.65
2022-08-22T19:38:02.559Z,4.57
2022-08-22T19:40:53.195Z,4.53
2022-08-22T19:43:42.055Z,4.00
2022-08-22T19:46:11.874Z,4.75
2022-08-22T19:48:48.777Z,4.88
2022-08-22T19:51:21.539Z,5.03
2022-08-22T19:54:20.301Z,5.50
2022-08-22T19:56:56.364Z,4.80
2022-08-22T19:59:50.737Z,5.03
2022-08-22T20:02:35.187Z,4.60
2022-08-22T20:05:29.964Z,4.60
2022-08-22T20:08:08.936Z,5.10
2022-08-22T20:11:02.977Z,4.60
2022-08-22T20:13:35.303Z,4.63
2022-08-22T20:16:23.287Z,4.43
2022-08-22T20:19:07.797Z,4.80
2022-08-22T20:21:50.026Z,4.55
2022-08-22T20:24:25.060Z,4.60
2022-08-22T20:27:13.483Z,4.80
2022-08-22T20:29:49.062Z,4.97
2022-08-22T20:32:19.370Z,5.13
2022-08-22T20:34:47.374Z,4.78
2022-08-22T20:37:32.344Z,4.70
2022-08-22T20:40:08.311Z,4.97
2022-08-22T20:42:55.371Z,4.72
2022-08-22T20:45:29.582Z,4.70
2022-08-22T20:47:57.604Z,4.70
2022-08-22T20:50:26.174Z,4.60
2022-08-22T20:53:14.846Z,5.00
2022-08-22T20:55:53.155Z,5.07
2022-08-22T20:58:24.271Z,5.10
2022-08-22T21:00:55.526Z,5.30
2022-08-22T21:03:40.883Z,5.55
2022-08-22T21:06:15.914Z,5.95
2022-08-22T21:08:44.666Z,5.53
2022-08-22T21:11:39.955Z,5.88
2022-08-22T21:14:24.166Z,6.45
2022-08-22T21:16:51.398Z,5.93
2022-08-22T21:19:26.711Z,5.63
2022-08-22T21:21:53.722Z,6.38
2022-08-22T21:24:20.528Z,5.82
2022-08-22T21:27:00.550Z,5.50
2022-08-22T21:29:33.836Z,5.28
2022-08-22T21:32:24.642Z,5.13
2022-08-22T21:34:52.080Z,5.25
2022-08-22T21:37:23.414Z,5.45
2022-08-22T21:39:58.421Z,5.50
2022-08-22T21:42:38.745Z,5.90
2022-08-22T21:45:31.969Z,5.43
2022-08-22T21:47:59.639Z,5.80
2022-08-22T21:50:34.491Z,6.15
2022-08-22T21:53:11.873Z,5.72
2022-08-22T21:55:44.439Z,5.80
2022-08-22T21:58:36.972Z,5.65
2022-08-22T22:01:31.045Z,5.25
2022-08-22T22:03:59.338Z,5.57
2022-08-22T22:06:26.622Z,5.50
2022-08-22T22:08:53.325Z,6.28
2022-08-22T22:11:19.996Z,5.60
2022-08-22T22:13:46.824Z,6.15
2022-08-22T22:16:13.572Z,5.80
2022-08-22T22:18:40.573Z,5.85
2022-08-22T22:21:08.368Z,5.97
2022-08-22T22:23:35.230Z,6.35
2022-08-22T22:26:04.225Z,6.22
2022-08-22T22:28:35.413Z,6.10
2022-08-22T22:31:03.461Z,6.13
2022-08-22T22:33:33.650Z,5.93
2022-08-22T22:36:16.369Z,5.60
2022-08-22T22:38:43.219Z,6.00
2022-08-22T22:41:11.261Z,5.70
2022-08-22T22:43:37.895Z,6.35
2022-08-22T22:46:04.812Z,6.03
2022-08-22T22:48:32.082Z,6.35
2022-08-22T22:50:58.857Z,6.70
2022-08-22T22:53:38.178Z,6.20
2022-08-22T22:56:06.650Z,6.30
2022-08-22T22:58:35.598Z,6.40
2022-08-22T23:01:31.514Z,6.50
2022-08-22T23:04:05.416Z,6.00
2022-08-22T23:06:32.987Z,6.40
2022-08-22T23:08:59.688Z,7.32
2022-08-22T23:11:31.103Z,6.68
2022-08-22T23:13:58.215Z,6.55
2022-08-22T23:16:28.049Z,7.53
2022-08-22T23:18:55.494Z,6.32
2022-08-22T23:21:27.799Z,6.25
2022-08-22T23:23:56.734Z,7.07
2022-08-22T23:26:23.742Z,6.82
2022-08-22T23:28:50.611Z,6.45
2022-08-22T23:31:19.342Z,7.22
2022-08-22T23:33:46.502Z,6.70
2022-08-22T23:36:20.719Z,7.10
2022-08-22T23:38:48.624Z,7.40
2022-08-22T23:41:17.861Z,6.65
2022-08-22T23:43:47.297Z,6.75
2022-08-22T23:46:15.447Z,7.13
2022-08-22T23:48:42.528Z,6.80
2022-08-22T23:51:15.459Z,6.85
2022-08-22T23:53:44.265Z,7.03
2022-08-22T23:56:19.412Z,7.20
2022-08-22T23:58:48.273Z,7.20
